Latest Weather Observations for Middle Point

IDD60901

Issued at 8:01 pm CST Saturday 25 June 2016 (issued every 10 minutes, with the page automatically refreshed every 10 minutes)

About weather observations | Map of Darwin area stations | Latest observations for Darwin area | Other Formats
Station Details ID: 014041 Name: MIDDLE POINT Lat: -12.61 Lon: 131.30 Height: 14.1 m
Data from the previous 72 hours. | See also: Recent months at Middle Point
Date/Time
CST
Temp
°C
App
Temp
°C
Dew
Point
°C
Rel
Hum
%
Delta-T
°C
Wind Press
QNH
hPa
Press
MSL
hPa
Rain since
9am
mm
Dir  Spd
km/h
Gust
km/h
Spd
kts
Gust
kts
25/08:00pm 25.1 27.3 19.5 71 3.6 N 7 11 4 6 1011.5 1011.4 0.0
25/07:30pm 26.1 28.3 19.5 67 4.3 N 7 9 4 5 1011.2 1011.1 0.0
25/07:00pm 27.6 29.5 19.7 62 5.1 N 9 11 5 6 1010.9 1010.8 0.0
25/06:30pm 28.9 30.5 19.2 55 6.3 N 9 11 5 6 1010.5 1010.5 0.0
25/06:00pm 31.9 33.6 18.5 45 8.7 NNE 7 9 4 5 1010.3 1010.3 0.0
25/05:30pm 33.1 33.6 16.5 37 10.5 E 9 11 5 6 1009.9 1009.9 0.0
25/05:00pm 33.6 33.5 16.9 37 10.6 ESE 13 17 7 9 1009.6 1009.6 0.0
25/04:30pm 34.1 33.3 16.0 34 11.4 ESE 15 24 8 13 1009.3 1009.3 0.0
25/04:00pm 33.0 32.3 15.5 35 10.9 ESE 13 20 7 11 1009.3 1009.3 0.0
25/03:30pm 34.6 34.5 16.0 33 11.7 ESE 11 17 6 9 1009.4 1009.4 0.0
25/03:00pm 34.2 33.5 16.5 34 11.2 ESE 15 22 8 12 1009.6 1009.6 0.0
25/02:30pm 32.8 33.2 16.2 37 10.5 SE 9 17 5 9 1010.0 1010.0 0.0
25/02:00pm 33.7 34.3 17.8 38 10.3 ESE 11 19 6 10 1010.4 1010.4 0.0
25/01:30pm 34.0 33.8 17.7 38 10.5 ESE 15 20 8 11 1011.1 1011.0 0.0
25/01:00pm 32.4 30.7 15.8 36 10.4 E 19 28 10 15 1011.6 1011.5 0.0
25/12:30pm 33.5 32.7 17.2 37 10.4 ENE 17 24 9 13 1012.0 1011.9 0.0
25/12:00pm 32.2 31.8 18.0 42 9.1 ESE 17 28 9 15 1012.4 1012.3 0.0
25/11:30am 32.0 31.5 18.6 45 8.7 E 19 26 10 14 1012.7 1012.6 0.0
25/11:00am 31.6 32.8 19.9 50 7.7 ESE 13 22 7 12 1013.0 1012.9 0.0
25/10:30am 29.5 31.0 20.6 58 5.9 SE 13 19 7 10 1013.4 1013.3 0.0
25/10:00am 28.4 30.2 19.6 59 5.7 SE 9 13 5 7 1013.7 1013.6 0.0
25/09:30am 26.2 28.1 19.8 68 4.2 ESE 9 13 5 7 1013.8 1013.7 0.0
25/09:00am 23.4 26.2 20.5 84 1.9 SSE 6 7 3 4 1013.7 1013.6 0.0
25/08:30am 22.0 24.4 20.1 89 1.2 SSE 7 9 4 5 1013.4 1013.3 0.0
25/08:00am 21.9 25.2 20.7 93 0.8 SSW 4 6 2 3 1013.1 1013.0 0.0
25/07:30am 20.7 23.4 19.5 93 0.8 S 4 4 2 2 1012.7 1012.6 0.0
25/07:00am 19.6 22.1 18.1 91 0.9 SSW 2 4 1 2 1012.4 1012.3 0.0
25/06:30am 20.4 23.3 19.1 92 0.8 E 2 4 1 2 1012.1 1012.0 0.0
25/06:00am 20.1 23.3 18.8 92 0.8 CALM 0 0 0 0 1011.9 1011.8 0.0
25/05:30am 19.8 22.4 18.3 91 0.9 SSE 2 4 1 2 1011.8 1011.7 0.0
25/05:00am 20.0 22.4 18.7 92 0.8 SSE 4 4 2 2 1011.7 1011.6 0.0
25/04:30am 20.1 21.9 18.8 92 0.8 SSE 7 11 4 6 1011.4 1011.3 0.0
25/04:00am 19.6 22.4 17.9 90 1.0 CALM 0 0 0 0 1011.1 1011.0 0.0
25/03:30am 20.0 23.0 18.5 91 0.9 CALM 0 0 0 0 1011.3 1011.2 0.0
25/03:00am 19.9 22.1 18.4 91 0.9 NW 4 4 2 2 1011.5 1011.4 0.0
25/02:30am 19.9 22.5 18.4 91 0.9 NW 2 6 1 3 1011.7 1011.6 0.0
25/02:00am 20.0 22.7 18.7 92 0.8 WSW 2 4 1 2 1011.7 1011.6 0.0
25/01:30am 19.8 22.0 18.3 91 0.9 W 4 6 2 3 1011.9 1011.8 0.0
25/01:00am 20.5 22.7 19.2 92 0.8 SW 6 9 3 5 1012.1 1012.0 0.0
25/12:30am 20.8 22.8 19.1 90 1.1 NNE 7 9 4 5 1011.8 1011.7 0.0
25/12:00am 21.6 23.3 20.2 92 0.9 NE 11 11 6 6 1011.6 1011.5 0.0
 
Date/Time
CST
Temp
°C
App
Temp
°C
Dew
Point
°C
Rel
Hum
%
Delta-T
°C
Wind Press
QNH
hPa
Press
MSL
hPa
Rain since
9am
mm
Dir  Spd
km/h
Gust
km/h
Spd
kts
Gust
kts
24/11:30pm 21.9 25.1 20.4 91 1.0 WNW 4 7 2 4 1011.2 1011.1 0.0
24/11:00pm 22.0 24.7 20.3 90 1.1 WSW 6 9 3 5 1010.9 1010.8 0.0
24/10:30pm 21.9 24.4 19.8 88 1.3 WSW 6 6 3 3 1010.9 1010.8 0.0
24/10:00pm 22.6 24.8 20.3 87 1.5 SW 9 13 5 7 1010.7 1010.7 0.0
24/09:30pm 22.2 24.4 19.7 86 1.6 SW 7 7 4 4 1010.6 1010.6 0.0
24/09:00pm 21.7 23.5 18.7 83 1.9 WSW 7 9 4 5 1010.6 1010.6 0.0
24/08:30pm 22.9 25.3 18.9 78 2.5 N 4 4 2 2 1010.4 1010.4 0.0
24/08:00pm 24.2 27.0 19.7 76 2.9 N 4 4 2 2 1010.3 1010.3 0.0
24/07:30pm 25.4 28.2 20.4 74 3.3 N 6 6 3 3 1010.0 1010.0 0.0
24/07:00pm 26.1 28.7 20.4 71 3.7 N 7 9 4 5 1009.7 1009.7 0.0
24/06:30pm 28.3 30.5 20.3 62 5.3 N 9 13 5 7 1009.6 1009.6 0.0
24/06:00pm 30.5 31.4 20.1 53 6.9 N 15 20 8 11 1009.4 1009.4 0.0
24/05:30pm 34.3 32.8 12.0 25 13.3 E 11 17 6 9 1009.1 1009.1 0.0
24/05:00pm 34.9 33.2 12.5 25 13.4 E 13 20 7 11 1008.9 1008.9 0.0
24/04:30pm 35.0 33.5 13.2 27 13.2 E 13 22 7 12 1008.8 1008.8 0.0
24/04:00pm 35.2 34.0 12.8 26 13.5 E 11 20 6 11 1008.7 1008.7 0.0
24/03:30pm 35.0 34.3 14.3 29 12.8 ESE 11 20 6 11 1008.8 1008.8 0.0
24/03:00pm 34.8 33.5 14.7 30 12.5 ESE 15 26 8 14 1009.1 1009.1 0.0
24/02:30pm 34.6 32.8 14.5 30 12.4 E 17 22 9 12 1009.5 1009.5 0.0
24/02:00pm 34.6 33.6 15.5 32 12.0 SE 15 22 8 12 1010.0 1010.0 0.0
24/01:30pm 33.4 32.3 15.4 34 11.2 E 15 24 8 13 1010.3 1010.3 0.0
24/01:00pm 33.6 31.5 14.6 31 11.7 E 19 28 10 15 1010.7 1010.7 0.0
24/12:30pm 34.0 32.6 14.5 31 12.0 E 15 24 8 13 1011.3 1011.2 0.0
24/12:00pm 32.9 31.7 15.0 34 11.1 E 15 22 8 12 1011.8 1011.7 0.0
24/11:30am 32.4 32.4 17.1 40 9.7 E 13 24 7 13 1012.4 1012.3 0.0
24/11:00am 30.4 31.8 17.8 46 8.0 E 7 13 4 7 1013.0 1012.9 0.0
24/10:30am 28.5 29.3 17.4 51 7.0 ESE 9 13 5 7 1013.3 1013.2 0.0
24/10:00am 26.6 27.6 16.8 55 6.1 ESE 7 11 4 6 1013.3 1013.2 0.0
24/09:30am 24.9 25.6 16.1 58 5.4 SE 7 9 4 5 1013.1 1013.0 0.0
24/09:00am 22.1 23.6 17.5 75 2.8 SSE 6 9 3 5 1012.8 1012.7 0.0
24/08:30am 20.4 22.1 18.0 86 1.5 S 6 9 3 5 1012.3 1012.2 0.0
24/08:00am 17.5 18.8 16.2 92 0.8 SSW 4 6 2 3 1011.8 1011.7 0.0
24/07:30am 17.0 18.2 15.9 93 0.6 WSW 4 6 2 3 1011.5 1011.4 0.0
24/07:00am 16.7 17.6 15.2 91 0.9 S 4 6 2 3 1011.2 1011.1 0.0
24/06:30am 17.0 18.9 15.7 92 0.8 CALM 0 0 0 0 1011.1 1011.0 0.0
24/06:00am 17.5 19.1 16.0 91 0.9 SSE 2 4 1 2 1010.9 1010.8 0.0
24/05:30am 18.2 19.2 16.9 92 0.8 SE 7 9 4 5 1010.6 1010.6 0.0
24/05:00am 19.0 21.6 17.5 91 0.9 CALM 0 0 0 0 1010.9 1010.8 0.0
24/04:30am 19.2 22.0 17.9 92 0.8 CALM 0 0 0 0 1011.0 1010.9 0.0
24/04:00am 19.8 22.0 18.3 91 0.9 S 4 4 2 2 1010.9 1010.8 0.0
24/03:30am 19.9 22.1 18.4 91 0.9 SW 4 4 2 2 1010.4 1010.4 0.0
24/03:00am 20.1 21.9 18.4 90 1.1 SW 6 7 3 4 1010.4 1010.4 0.0
24/02:30am 20.2 22.0 18.7 91 0.9 SW 7 9 4 5 1010.6 1010.6 0.0
24/02:00am 20.6 22.8 19.3 92 0.8 SSW 6 6 3 3 1010.9 1010.8 0.0
24/01:30am 20.0 22.0 18.7 92 0.8 WSW 6 6 3 3 1011.3 1011.2 0.0
24/01:00am 20.1 22.4 18.6 91 0.9 WSW 4 4 2 2 1011.4 1011.3 0.0
24/12:30am 20.3 23.1 18.8 91 0.9 SW 2 2 1 1 1011.6 1011.5 0.0
24/12:00am 20.4 22.9 18.2 87 1.4 S 2 4 1 2 1011.8 1011.7 0.0
 
Date/Time
CST
Temp
°C
App
Temp
°C
Dew
Point
°C
Rel
Hum
%
Delta-T
°C
Wind Press
QNH
hPa
Press
MSL
hPa
Rain since
9am
mm
Dir  Spd
km/h
Gust
km/h
Spd
kts
Gust
kts
23/11:30pm 21.3 24.7 19.4 89 1.2 CALM 0 0 0 0 1011.9 1011.8 0.0
23/11:00pm 22.0 25.6 19.7 87 1.5 CALM 0 0 0 0 1012.1 1012.0 0.0
23/10:30pm 21.7 25.2 19.6 88 1.3 CALM 0 0 0 0 1012.1 1012.0 0.0
23/10:00pm 22.5 25.7 20.6 89 1.2 SW 4 6 2 3 1011.8 1011.7 0.0
23/09:30pm 22.4 24.7 19.8 85 1.7 SW 7 11 4 6 1011.5 1011.4 0.0
23/09:00pm 23.2 27.1 20.3 84 1.9 CALM 0 2 0 1 1011.2 1011.1 0.0
23/08:30pm 24.5 27.7 21.2 82 2.2 N 6 6 3 3 1010.9 1010.8 0.0
23/08:00pm 23.8 26.3 19.9 79 2.5 NNW 6 7 3 4 1010.3 1010.3 0.0
23/07:30pm 24.7 27.3 20.0 75 3.0 NNW 6 6 3 3 1009.8 1009.8 0.0
23/07:00pm 25.9 28.1 20.5 72 3.5 N 9 13 5 7 1009.4 1009.4 0.0
23/06:30pm 26.1 27.9 18.8 64 4.7 N 7 9 4 5 1009.1 1009.1 0.0
23/06:00pm 28.7 30.7 18.8 55 6.4 N 6 7 3 4 1008.7 1008.7 0.0
23/05:30pm 30.9 32.1 16.9 43 8.9 NNW 6 6 3 3 1008.5 1008.5 0.0
23/05:00pm 32.5 33.0 14.1 32 11.2 NW 4 7 2 4 1008.5 1008.5 0.0
23/04:30pm 32.8 33.1 14.4 33 11.3 N 6 9 3 5 1008.3 1008.3 0.0
23/04:00pm 33.2 32.9 13.3 30 12.0 ESE 7 11 4 6 1008.4 1008.4 0.0
23/03:30pm 33.5 33.4 14.0 30 11.9 SW 7 15 4 8 1008.4 1008.4 0.0
23/03:00pm 33.9 34.2 14.4 31 12.0 WSW 6 9 3 5 1008.7 1008.7 0.0
23/02:30pm 32.8 33.3 14.9 34 11.1 ENE 6 11 3 6 1009.1 1009.1 0.0
23/02:00pm 32.6 32.8 14.7 34 11.0 SE 7 17 4 9 1009.6 1009.6 0.0
23/01:30pm 32.3 32.5 15.7 36 10.4 SE 9 17 5 9 1010.3 1010.3 0.0
23/01:00pm 31.7 31.8 15.6 37 10.0 E 9 19 5 10 1010.9 1010.8 0.0
23/12:30pm 31.2 30.9 16.4 41 9.3 ESE 13 19 7 10 1011.5 1011.4 0.0
23/12:00pm 31.1 31.7 17.8 45 8.5 E 11 17 6 9 1012.0 1011.9 0.0
23/11:30am 30.8 31.0 18.5 47 7.9 ENE 15 24 8 13 1012.5 1012.4 0.0
23/11:00am 28.6 28.7 16.5 48 7.5 E 11 15 6 8 1012.9 1012.8 0.0
23/10:30am 27.4 27.1 15.4 48 7.3 ESE 11 15 6 8 1013.2 1013.1 0.0
23/10:00am 24.8 24.5 13.4 49 6.7 SE 7 11 4 6 1013.4 1013.3 0.0
23/09:30am 22.9 22.2 11.9 50 6.2 SSE 7 11 4 6 1013.3 1013.2 0.0
23/09:00am 20.7 20.0 12.1 58 4.8 S 7 11 4 6 1012.9 1012.8 0.0
23/08:30am 18.4 17.9 12.6 69 3.2 S 7 9 4 5 1012.5 1012.4 0.0
23/08:00am 16.5 17.2 13.4 82 1.7 S 2 4 1 2 1012.1 1012.0 0.0
23/07:30am 14.5 14.7 11.7 83 1.5 S 2 2 1 1 1011.6 1011.5 0.0
23/07:00am 14.7 15.2 11.5 81 1.7 CALM 0 6 0 3 1011.5 1011.4 0.0
23/06:30am 14.4 13.7 11.4 82 1.6 S 6 7 3 4 1011.1 1011.0 0.0
23/06:00am 15.8 14.8 12.4 80 1.9 S 9 9 5 5 1011.0 1010.9 0.0
23/05:30am 15.0 14.8 11.8 81 1.7 S 4 6 2 3 1010.7 1010.7 0.0
23/05:00am 15.3 14.6 11.5 78 2.0 S 6 7 3 4 1010.6 1010.6 0.0
23/04:30am 15.8 15.0 11.6 76 2.3 S 7 9 4 5 1010.5 1010.5 0.0
23/04:00am 16.4 15.9 12.8 79 2.0 SSW 7 9 4 5 1010.5 1010.5 0.0
23/03:30am 15.6 15.5 13.3 86 1.3 S 6 7 3 4 1010.6 1010.6 0.0
23/03:00am 15.6 16.0 13.8 89 1.0 SSW 4 6 2 3 1010.9 1010.8 0.0
23/02:30am 16.1 16.0 13.8 86 1.3 S 7 9 4 5 1010.9 1010.8 0.0
23/02:00am 16.7 17.0 14.9 89 1.0 SSE 7 7 4 4 1011.2 1011.1 0.0
23/01:30am 17.2 17.6 14.7 85 1.4 S 6 6 3 3 1011.4 1011.3 0.0
23/01:00am 18.7 19.5 15.8 83 1.7 SW 6 6 3 3 1011.5 1011.4 0.0
23/12:30am 17.7 18.4 15.5 87 1.3 WSW 6 7 3 4 1011.7 1011.6 0.0
23/12:00am 18.7 19.5 15.9 84 1.7 WSW 6 7 3 4 1011.7 1011.6 0.0
 
Date/Time
CST
Temp
°C
App
Temp
°C
Dew
Point
°C
Rel
Hum
%
Delta-T
°C
Wind Press
QNH
hPa
Press
MSL
hPa
Rain since
9am
mm
Dir  Spd
km/h
Gust
km/h
Spd
kts
Gust
kts
22/11:30pm 19.4 20.5 16.6 84 1.7 SW 6 6 3 3 1011.9 1011.8 0.0
22/11:00pm 18.8 19.6 16.4 86 1.4 WSW 7 9 4 5 1011.9 1011.8 0.0
22/10:30pm 19.4 20.2 16.4 83 1.8 WSW 7 11 4 6 1011.8 1011.7 0.0
22/10:00pm 20.1 21.6 16.7 81 2.1 WSW 4 7 2 4 1011.8 1011.7 0.0
22/09:30pm 20.1 21.2 16.5 80 2.2 WNW 6 6 3 3 1011.5 1011.4 0.0
22/09:00pm 19.7 20.4 16.2 80 2.1 WNW 7 7 4 4 1010.9 1010.8 0.0
22/08:30pm 20.9 22.0 16.7 77 2.6 NW 6 7 3 4 1010.3 1010.3 0.0

Latest Capital City Observations: Canberra | Sydney | Melbourne | Brisbane | Adelaide | Perth | Hobart | Darwin

Other Formats:

Comma delimited format used in spreadsheet applications
http://www.bom.gov.au/fwo/IDD60901/IDD60901.95121.axf

JavaScript Object Notation format (JSON) in row-major order
http://www.bom.gov.au/fwo/IDD60901/IDD60901.95121.json